Time;durP1;ratioP1;P1;durP2;ratioP2;P2;SDS_P1;SDS_P2;PMS_P1;PMS_P2;Temp;Humidity;BMP_temperature;BMP_pressure;BME280_temperature;BME280_humidity;BME280_pressure;Samples;Min_cycle;Max_cycle;Signal;HPM_P1;HPM_P2
2022/04/04 00:00:15;;;;;;;14.73;7.72;;;;;;;2.04;48.61;100297.72;2350736;75;27998;-68
2022/04/04 00:03:19;;;;;;;16.93;8.13;;;;;;;2.05;48.62;100298.15;2297891;77;27830;-68
2022/04/04 00:06:20;;;;;;;16.60;8.53;;;;;;;2.06;48.67;100292.86;2265458;78;27723;-67
2022/04/04 00:09:22;;;;;;;12.75;6.87;;;;;;;2.08;48.70;100288.86;2285097;77;28608;-67
2022/04/04 00:12:24;;;;;;;11.75;6.92;;;;;;;2.07;48.76;100284.01;2303762;77;30961;-67
2022/04/04 00:15:27;;;;;;;13.03;7.35;;;;;;;2.07;48.83;100287.97;2264276;78;33019;-68
2022/04/04 00:18:29;;;;;;;11.28;6.47;;;;;;;2.09;48.85;100286.19;2264967;78;29375;-68
2022/04/04 00:21:31;;;;;;;12.58;6.85;;;;;;;2.10;48.85;100287.08;2265026;78;28197;-69
2022/04/04 00:24:33;;;;;;;15.38;6.60;;;;;;;2.11;48.92;100284.86;2264735;78;29682;-68
2022/04/04 00:27:38;;;;;;;14.10;7.05;;;;;;;2.11;49.04;100278.25;2264028;78;30996;-68
2022/04/04 00:30:40;;;;;;;13.18;6.80;;;;;;;2.09;49.12;100279.58;2264150;78;32967;-69
2022/04/04 00:33:42;;;;;;;15.13;6.58;;;;;;;2.06;49.16;100273.05;2264476;78;28695;-69
2022/04/04 00:36:45;;;;;;;14.50;7.28;;;;;;;2.01;49.11;100270.91;2264080;78;27675;-69
2022/04/04 00:39:50;;;;;;;14.33;6.92;;;;;;;1.95;49.15;100275.84;2265607;78;28856;-68
2022/04/04 00:42:50;;;;;;;16.82;7.55;;;;;;;1.85;49.20;100273.34;2304661;77;31069;-68
2022/04/04 00:45:53;;;;;;;13.28;6.78;;;;;;;1.77;49.36;100276.95;2282294;77;32445;-68
2022/04/04 00:48:55;;;;;;;13.15;7.10;;;;;;;1.70;49.52;100273.10;2264613;78;29489;-68
2022/04/04 00:51:57;;;;;;;14.45;7.67;;;;;;;1.59;49.66;100276.77;2264005;78;27690;-68
2022/04/04 00:54:59;;;;;;;12.30;7.28;;;;;;;1.49;49.80;100272.52;2264068;78;29427;-68
2022/04/04 00:58:01;;;;;;;11.85;6.50;;;;;;;1.40;49.85;100266.02;2283480;77;31010;-68
2022/04/04 01:01:03;;;;;;;13.32;7.08;;;;;;;1.29;50.11;100261.75;2272942;75;33655;-67
2022/04/04 01:04:05;;;;;;;14.43;6.95;;;;;;;1.21;50.21;100254.36;2298845;77;28766;-67
2022/04/04 01:07:06;;;;;;;9.55;6.10;;;;;;;1.14;50.35;100251.38;2275284;77;27597;-67
2022/04/04 01:10:09;;;;;;;13.30;6.83;;;;;;;1.10;50.56;100252.30;2297083;77;29425;-67
2022/04/04 01:13:12;;;;;;;14.23;7.33;;;;;;;1.06;50.79;100255.42;2297830;77;31012;-67
2022/04/04 01:16:13;;;;;;;12.43;6.33;;;;;;;1.04;50.99;100251.92;2298272;77;33766;-67
2022/04/04 01:19:15;;;;;;;13.45;6.67;;;;;;;1.04;51.25;100250.15;2299176;77;28708;-67
2022/04/04 01:22:18;;;;;;;12.85;6.47;;;;;;;1.03;51.33;100249.72;2267622;77;27693;-67
2022/04/04 01:25:26;;;;;;;10.78;6.53;;;;;;;1.03;51.51;100243.13;2274505;77;28700;-67
2022/04/04 01:28:27;;;;;;;12.07;6.70;;;;;;;1.03;51.68;100235.20;2292355;77;31646;-67
2022/04/04 01:31:29;;;;;;;10.70;6.20;;;;;;;1.05;51.75;100230.80;2257767;78;32998;-67
2022/04/04 01:34:32;;;;;;;10.63;6.67;;;;;;;1.09;51.96;100232.08;2257723;78;29503;-67
2022/04/04 01:37:34;;;;;;;13.40;7.12;;;;;;;1.09;51.94;100230.77;2278491;77;27702;-69
2022/04/04 01:40:35;;;;;;;12.60;7.17;;;;;;;1.12;52.29;100223.67;2297373;77;29470;-67
2022/04/04 01:43:37;;;;;;;10.05;7.03;;;;;;;1.14;52.24;100221.89;2298305;77;30980;-68
2022/04/04 01:46:39;;;;;;;10.00;7.05;;;;;;;1.17;52.49;100217.91;2298227;77;32915;-67
2022/04/04 01:49:40;;;;;;;11.12;7.00;;;;;;;1.23;52.53;100220.05;2299151;77;28714;-67
2022/04/04 01:53:25;;;;;;;11.20;6.67;;;;;;;1.29;52.60;100219.95;2290320;77;27583;-67
2022/04/04 01:55:46;;;;;;;13.58;7.10;;;;;;;1.35;52.63;100214.61;2257726;78;28808;-67
2022/04/04 01:58:48;;;;;;;14.68;7.20;;;;;;;1.40;52.73;100206.63;2261780;77;31956;-67
2022/04/04 02:01:49;;;;;;;11.53;7.33;;;;;;;1.47;52.75;100203.02;2279630;77;33777;-66
2022/04/04 02:04:51;;;;;;;11.18;7.33;;;;;;;1.51;52.71;100209.55;2293249;75;28736;-67
2022/04/04 02:07:53;;;;;;;14.05;7.72;;;;;;;1.58;52.82;100209.02;2355730;75;27762;-66
2022/04/04 02:10:55;;;;;;;10.50;7.03;;;;;;;1.63;52.73;100211.16;2312771;75;28619;-66
2022/04/04 02:13:58;;;;;;;12.55;7.70;;;;;;;1.68;52.78;100203.16;2310298;77;31846;-68
2022/04/04 02:17:00;;;;;;;11.95;7.45;;;;;;;1.74;52.76;100210.97;2310119;77;33785;-66
2022/04/04 02:20:03;;;;;;;11.30;7.87;;;;;;;1.80;52.92;100212.67;2310248;77;28760;-66
2022/04/04 02:23:05;;;;;;;10.82;6.85;;;;;;;1.84;52.97;100202.92;2310055;77;27696;-69
2022/04/04 02:26:07;;;;;;;11.25;6.22;;;;;;;1.87;52.90;100204.20;2310293;77;29454;-67
2022/04/04 02:29:09;;;;;;;9.80;6.55;;;;;;;1.93;52.97;100204.09;2310291;77;31053;-67
2022/04/04 02:32:11;;;;;;;14.10;7.37;;;;;;;1.96;53.02;100193.05;2310359;77;32908;-67
2022/04/04 02:35:12;;;;;;;10.68;7.65;;;;;;;1.99;52.88;100195.22;2310270;77;28685;-68
2022/04/04 02:38:14;;;;;;;12.30;7.72;;;;;;;2.03;52.96;100187.21;2311482;77;27696;-68
2022/04/04 02:41:16;;;;;;;11.48;7.45;;;;;;;2.05;52.88;100192.03;2329931;75;28630;-67
2022/04/04 02:44:18;;;;;;;11.73;7.33;;;;;;;2.07;52.88;100187.56;2351855;75;31059;-68
2022/04/04 02:47:20;;;;;;;12.55;8.25;;;;;;;2.11;52.83;100189.27;2311673;77;33778;-68
2022/04/04 02:50:22;;;;;;;11.85;7.87;;;;;;;2.14;52.81;100192.33;2346159;75;28725;-67
2022/04/04 02:53:24;;;;;;;13.85;8.73;;;;;;;2.17;52.96;100190.92;2336703;75;27591;-66
2022/04/04 02:56:32;;;;;;;12.63;8.33;;;;;;;2.20;52.98;100186.06;2311904;77;28629;-68
2022/04/04 02:59:33;;;;;;;13.43;7.60;;;;;;;2.23;52.97;100186.88;2310294;77;30999;-67
2022/04/04 03:02:35;;;;;;;10.88;7.65;;;;;;;2.27;53.01;100186.36;2290884;75;33745;-67
2022/04/04 03:05:37;;;;;;;15.45;8.13;;;;;;;2.31;53.00;100189.84;2299182;76;29715;-67
2022/04/04 03:08:38;;;;;;;11.33;7.60;;;;;;;2.36;53.10;100182.68;2279126;76;27603;-67
2022/04/04 03:11:40;;;;;;;12.53;8.03;;;;;;;2.40;53.20;100182.59;2259830;78;28634;-68
2022/04/04 03:14:42;;;;;;;12.10;7.95;;;;;;;2.44;53.17;100184.76;2259070;78;30995;-69
2022/04/04 03:17:48;;;;;;;15.08;7.97;;;;;;;2.49;53.15;100174.95;2282978;77;32962;-68
2022/04/04 03:20:50;;;;;;;10.98;7.70;;;;;;;2.54;53.23;100178.85;2290028;77;28725;-68
2022/04/04 03:23:53;;;;;;;15.83;8.55;;;;;;;2.57;53.19;100177.45;2257708;78;27651;-68
2022/04/04 03:26:55;;;;;;;11.50;7.33;;;;;;;2.61;53.24;100178.28;2259227;78;30042;-68
2022/04/04 03:29:56;;;;;;;13.03;7.87;;;;;;;2.64;53.22;100183.52;2259892;78;31351;-68
2022/04/04 03:32:59;;;;;;;12.95;7.20;;;;;;;2.67;53.27;100177.72;2271390;77;32941;-67
2022/04/04 03:36:01;;;;;;;9.73;6.60;;;;;;;2.69;53.30;100181.64;2301417;77;29166;-67
2022/04/04 03:39:03;;;;;;;10.58;7.37;;;;;;;2.71;53.42;100180.73;2259477;77;27585;-68
2022/04/04 03:42:06;;;;;;;9.00;6.47;;;;;;;2.76;53.50;100178.42;2259669;77;29481;-68
2022/04/04 03:45:11;;;;;;;9.88;6.70;;;;;;;2.80;53.44;100179.68;2259497;78;30995;-68
2022/04/04 03:48:12;;;;;;;10.78;7.30;;;;;;;2.83;53.50;100170.80;2261788;77;33750;-68
2022/04/04 03:51:14;;;;;;;13.58;7.65;;;;;;;2.87;53.61;100174.67;2290222;77;28705;-68
2022/04/04 03:54:15;;;;;;;10.32;7.80;;;;;;;2.91;53.56;100168.86;2262764;77;27581;-68
2022/04/04 03:57:17;;;;;;;10.55;7.72;;;;;;;2.96;53.61;100178.05;2258026;78;28601;-68
2022/04/04 04:00:22;;;;;;;9.50;7.25;;;;;;;2.98;53.58;100166.98;2263084;77;32352;-66
2022/04/04 04:03:24;;;;;;;7.85;5.22;;;;;;;3.01;53.63;100169.11;2305456;77;33868;-69
2022/04/04 04:06:25;;;;;;;10.40;6.92;;;;;;;3.03;53.61;100163.77;2273330;77;29056;-69
2022/04/04 04:09:27;;;;;;;11.80;6.70;;;;;;;3.02;53.62;100161.59;2242155;78;27764;-67
2022/04/04 04:12:29;;;;;;;9.08;6.45;;;;;;;3.02;53.62;100168.64;2301879;77;29425;-67
2022/04/04 04:15:31;;;;;;;9.93;7.75;;;;;;;3.02;53.64;100166.00;2265458;78;30989;-67
2022/04/04 04:18:33;;;;;;;12.73;7.70;;;;;;;3.00;53.64;100172.66;2231824;78;33103;-67
2022/04/04 04:21:35;;;;;;;10.63;7.72;;;;;;;2.98;53.66;100165.66;2245099;78;29035;-67
2022/04/04 04:24:37;;;;;;;11.97;8.15;;;;;;;2.94;53.73;100160.01;2263984;78;28106;-68
2022/04/04 04:27:39;;;;;;;9.70;7.42;;;;;;;2.89;53.85;100155.67;2265293;78;29114;-67
2022/04/04 04:30:41;;;;;;;12.65;7.25;;;;;;;2.85;53.86;100159.27;2263786;78;30832;-67
2022/04/04 04:33:43;;;;;;;12.88;7.50;;;;;;;2.78;53.88;100156.78;2243204;78;34258;-68
2022/04/04 04:36:45;;;;;;;16.75;7.80;;;;;;;2.71;53.91;100157.36;2225150;80;29056;-68
2022/04/04 04:39:46;;;;;;;9.15;7.03;;;;;;;2.62;53.90;100154.91;2225261;80;27671;-67
2022/04/04 04:42:51;;;;;;;12.13;7.17;;;;;;;2.53;53.97;100154.16;2226956;78;28868;-66
2022/04/04 04:45:53;;;;;;;11.73;5.93;;;;;;;2.42;54.09;100158.33;2259460;78;31155;-67
2022/04/04 04:48:55;;;;;;;11.43;7.40;;;;;;;2.33;54.19;100158.94;2263478;78;33166;-67
2022/04/04 04:51:57;;;;;;;14.38;7.45;;;;;;;2.25;54.32;100153.79;2263438;78;28986;-66
2022/04/04 04:55:00;;;;;;;13.03;7.53;;;;;;;2.19;54.50;100156.09;2265661;78;27644;-67
2022/04/04 04:58:02;;;;;;;14.95;7.30;;;;;;;2.17;54.70;100151.28;2265348;77;28624;-68
2022/04/04 05:01:04;;;;;;;9.73;7.58;;;;;;;2.16;54.73;100148.22;2263489;78;31837;-68
2022/04/04 05:04:06;;;;;;;13.65;7.95;;;;;;;2.18;55.01;100153.50;2261129;78;32943;-66
2022/04/04 05:07:08;;;;;;;12.47;6.92;;;;;;;2.19;55.02;100148.63;2265847;78;29548;-68
2022/04/04 05:10:09;;;;;;;12.07;6.97;;;;;;;2.20;55.17;100151.70;2236829;78;27644;-68
2022/04/04 05:13:13;;;;;;;11.83;6.90;;;;;;;2.23;55.29;100153.83;2252188;78;28625;-68
2022/04/04 05:16:15;;;;;;;13.32;8.03;;;;;;;2.27;55.39;100154.20;2265575;78;31082;-68
2022/04/04 05:19:17;;;;;;;8.88;6.87;;;;;;;2.32;55.51;100151.47;2263749;77;33125;-68
2022/04/04 05:22:19;;;;;;;15.95;8.50;;;;;;;2.40;55.64;100151.33;2263460;78;29012;-67
2022/04/04 05:25:21;;;;;;;20.55;12.68;;;;;;;2.46;55.59;100160.48;2263394;78;27671;-68
2022/04/04 05:28:22;;;;;;;31.40;16.17;;;;;;;2.54;55.67;100151.09;2259972;78;28618;-68
2022/04/04 05:31:24;;;;;;;16.93;10.93;;;;;;;2.61;55.56;100151.84;2225214;80;31678;-68
2022/04/04 05:34:27;;;;;;;18.05;8.68;;;;;;;2.70;55.50;100146.36;2224722;80;33870;-68
2022/04/04 05:37:29;;;;;;;14.58;8.10;;;;;;;2.80;55.50;100147.94;2234036;78;29120;-67
2022/04/04 05:40:31;;;;;;;15.60;9.05;;;;;;;2.90;55.38;100152.56;2265768;78;27560;-67
2022/04/04 05:43:33;;;;;;;16.30;10.32;;;;;;;3.01;55.32;100147.94;2265385;78;28651;-69
2022/04/04 05:46:34;;;;;;;14.83;10.08;;;;;;;3.12;55.31;100152.13;2265396;78;31878;-68
2022/04/04 05:49:36;;;;;;;18.40;9.33;;;;;;;3.24;55.08;100150.99;2264396;78;32937;-69
2022/04/04 05:52:38;;;;;;;19.85;11.30;;;;;;;3.35;55.07;100150.30;2265429;77;29765;-68
2022/04/04 05:56:04;;;;;;;14.68;8.80;;;;;;;3.48;54.77;100151.75;2265609;78;27672;-69
2022/04/04 05:59:28;;;;;;;16.87;10.43;;;;;;;3.63;54.55;100151.86;2252666;78;27702;-69
2022/04/04 06:02:30;;;;;;;24.10;10.05;;;;;;;3.88;54.30;100151.73;2263247;78;31009;-69
2022/04/04 06:05:34;;;;;;;14.20;9.75;;;;;;;4.10;54.15;100152.06;2242092;78;35235;-68
2022/04/04 06:08:35;;;;;;;14.75;10.10;;;;;;;4.37;53.79;100149.16;2268250;78;29077;-68
2022/04/04 06:11:37;;;;;;;14.38;10.30;;;;;;;4.60;53.56;100145.02;2269664;78;27658;-69
2022/04/04 06:14:43;;;;;;;13.38;9.88;;;;;;;4.80;53.38;100146.25;2270162;78;29095;-69
2022/04/04 06:17:44;;;;;;;15.30;9.83;;;;;;;5.04;52.96;100142.46;2268206;78;31132;-69
2022/04/04 06:20:46;;;;;;;14.43;9.75;;;;;;;5.41;52.61;100141.36;2268035;78;32935;-67
2022/04/04 06:23:49;;;;;;;15.03;9.35;;;;;;;5.90;52.50;100134.92;2268042;78;29739;-68
2022/04/04 06:26:51;;;;;;;12.50;8.80;;;;;;;6.46;51.95;100137.06;2268180;78;28199;-68
2022/04/04 06:29:52;;;;;;;14.95;9.63;;;;;;;7.04;51.50;100131.41;2245251;78;30758;-68
2022/04/04 06:32:54;;;;;;;14.87;8.45;;;;;;;7.63;50.79;100133.60;2229438;79;32091;-68
2022/04/04 06:35:57;;;;;;;13.65;8.83;;;;;;;8.14;50.35;100139.06;2228830;79;33058;-68
2022/04/04 06:38:58;;;;;;;17.85;9.33;;;;;;;8.60;49.39;100134.91;2265015;78;29135;-68
2022/04/04 06:42:01;;;;;;;13.00;9.58;;;;;;;8.99;48.93;100134.97;2268009;78;27658;-68
2022/04/04 06:45:06;;;;;;;15.93;9.65;;;;;;;9.41;48.39;100134.77;2267964;78;28622;-67
2022/04/04 06:48:09;;;;;;;13.03;9.75;;;;;;;9.86;48.09;100123.25;2268114;78;30993;-68
2022/04/04 06:51:12;;;;;;;14.95;8.85;;;;;;;10.32;47.30;100124.55;2269299;78;32948;-68
2022/04/04 06:54:14;;;;;;;15.68;8.35;;;;;;;10.73;46.83;100129.59;2240109;78;31121;-68
2022/04/04 06:57:16;;;;;;;16.95;9.30;;;;;;;11.09;46.29;100117.81;2228704;79;27659;-67
2022/04/04 07:00:18;;;;;;;10.25;7.47;;;;;;;11.45;45.87;100123.91;2234451;77;28681;-68
2022/04/04 07:03:20;;;;;;;17.05;7.65;;;;;;;11.81;45.33;100112.04;2287665;77;31391;-68
2022/04/04 07:06:23;;;;;;;14.35;6.87;;;;;;;12.10;44.75;100105.47;2265989;78;33035;-68
2022/04/04 07:09:25;;;;;;;8.50;6.90;;;;;;;12.49;44.48;100103.65;2268072;78;29075;-67
2022/04/04 07:12:28;;;;;;;10.82;7.03;;;;;;;12.82;44.09;100107.91;2264034;78;27738;-67
2022/04/04 07:15:29;;;;;;;8.13;6.58;;;;;;;13.09;43.41;100097.21;2251545;78;28731;-67
2022/04/04 07:18:32;;;;;;;7.87;6.08;;;;;;;13.38;42.86;100094.50;2268469;77;31049;-66
2022/04/04 07:21:34;;;;;;;10.78;7.08;;;;;;;13.63;42.53;100090.22;2268170;78;32976;-67
2022/04/04 07:24:36;;;;;;;8.40;6.30;;;;;;;13.85;42.33;100087.46;2262400;78;28642;-66
2022/04/04 07:27:43;;;;;;;10.50;6.87;;;;;;;14.16;41.61;100092.13;2229076;79;27678;-67
2022/04/04 07:30:44;;;;;;;9.43;7.00;;;;;;;14.25;40.81;100079.35;2255625;78;28668;-67
2022/04/04 07:33:46;;;;;;;9.38;6.17;;;;;;;14.39;40.62;100079.75;2268380;78;31658;-67
2022/04/04 07:36:48;;;;;;;8.40;6.80;;;;;;;14.42;39.96;100079.05;2267942;78;32918;-66
2022/04/04 07:39:50;;;;;;;12.13;6.30;;;;;;;14.53;39.90;100072.06;2269319;78;28988;-66
2022/04/04 07:42:51;;;;;;;6.72;5.70;;;;;;;14.67;39.76;100069.73;2269686;78;27756;-67
2022/04/04 07:45:53;;;;;;;9.73;6.28;;;;;;;14.82;39.10;100067.82;2268178;78;28705;-66
2022/04/04 07:48:59;;;;;;;7.20;5.70;;;;;;;14.81;38.30;100079.58;2262486;78;31810;-67
2022/04/04 07:52:01;;;;;;;8.58;5.55;;;;;;;14.78;37.88;100069.00;2267361;78;32940;-67
2022/04/04 07:55:04;;;;;;;10.00;5.35;;;;;;;14.84;37.94;100053.24;2266751;78;30114;-68
2022/04/04 07:58:07;;;;;;;6.90;5.37;;;;;;;14.99;38.25;100031.53;2267241;78;27603;-67
2022/04/04 08:01:09;;;;;;;9.70;5.60;;;;;;;14.99;38.25;100031.53;2267484;78;29292;-67
2022/04/04 08:04:12;;;;;;;11.18;5.35;;;;;;;15.33;37.99;100047.48;2264884;78;31021;-67
2022/04/04 08:07:15;;;;;;;5.60;4.80;;;;;;;15.54;36.66;100040.12;2265681;78;32593;-67
2022/04/04 08:10:17;;;;;;;8.90;5.25;;;;;;;15.54;36.66;100040.12;2235792;78;29008;-66
2022/04/04 08:13:18;;;;;;;5.50;4.40;;;;;;;15.63;37.37;100033.17;2242188;78;27719;-66
2022/04/04 08:16:22;;;;;;;7.42;4.95;;;;;;;15.92;37.13;100020.16;2264017;78;28619;-67
2022/04/04 08:19:23;;;;;;;5.97;4.83;;;;;;;15.92;37.13;100020.16;2264583;78;31026;-67
2022/04/04 08:22:25;;;;;;;6.92;4.80;;;;;;;15.82;36.19;100008.31;2238339;78;32917;-67
2022/04/04 08:25:27;;;;;;;5.20;4.60;;;;;;;15.69;35.85;100020.53;2250511;78;29031;-66
2022/04/04 08:28:31;;;;;;;9.20;5.03;;;;;;;15.51;35.46;100010.64;2241822;78;27738;-67
2022/04/04 08:31:34;;;;;;;7.60;6.08;;;;;;;15.34;36.04;100010.06;2236711;78;28727;-67
2022/04/04 08:34:36;;;;;;;12.30;5.55;;;;;;;15.38;35.27;100005.80;2231316;78;31702;-67
2022/04/04 08:37:41;;;;;;;6.15;5.33;;;;;;;15.22;35.86;99959.71;2224401;79;33020;-67
2022/04/04 08:40:44;;;;;;;7.67;5.22;;;;;;;15.89;36.08;100000.13;2261702;78;29084;-67
2022/04/04 08:43:49;;;;;;;10.53;6.12;;;;;;;15.89;36.08;100000.13;2263583;78;27626;-68
2022/04/04 08:46:52;;;;;;;11.70;6.90;;;;;;;15.95;35.25;99994.26;2265252;78;29450;-67
2022/04/04 08:49:54;;;;;;;13.72;5.85;;;;;;;15.93;35.29;99986.76;2236078;78;31209;-67
2022/04/04 08:52:56;;;;;;;7.40;5.60;;;;;;;15.86;34.91;99981.48;2265356;78;33007;-67
2022/04/04 08:56:04;;;;;;;9.55;4.40;;;;;;;15.70;34.69;99980.90;2265681;78;29082;-66
2022/04/04 08:59:06;;;;;;;11.50;5.90;;;;;;;15.44;34.51;99969.75;2251434;78;27715;-66
2022/04/04 09:02:10;;;;;;;7.15;5.62;;;;;;;14.94;33.97;99986.52;2264414;78;29503;-66
2022/04/04 09:05:12;;;;;;;9.08;4.50;;;;;;;14.57;34.25;99977.39;2227213;78;31719;-67
2022/04/04 09:08:15;;;;;;;8.43;5.17;;;;;;;14.27;33.87;99970.98;2207276;79;33796;-66
2022/04/04 09:11:17;;;;;;;6.80;4.62;;;;;;;13.91;34.20;99977.97;2220530;79;30199;-66
2022/04/04 09:14:25;;;;;;;6.83;5.40;;;;;;;13.55;34.19;99964.23;2142264;77;27750;-64
2022/04/04 09:17:33;;;;;;;6.85;5.28;;;;;;;13.39;34.60;99956.31;2129436;83;29444;-66
2022/04/04 09:20:35;;;;;;;8.95;6.03;;;;;;;13.34;34.89;99949.88;2134589;83;31018;-66
2022/04/04 09:23:48;;;;;;;8.35;5.22;;;;;;;13.51;35.18;99947.91;2113181;83;32979;-66
2022/04/04 09:26:51;;;;;;;9.60;4.45;;;;;;;13.48;34.91;99937.38;2108182;83;29076;-66
2022/04/04 09:29:58;;;;;;;8.28;4.70;;;;;;;13.55;34.67;99929.25;2105874;84;27628;-66
2022/04/04 09:33:01;;;;;;;7.70;4.62;;;;;;;13.71;35.09;99921.46;2117477;83;29408;-66
2022/04/04 09:36:04;;;;;;;8.60;4.85;;;;;;;13.77;34.68;99905.74;2109486;83;31713;-66
2022/04/04 09:39:10;;;;;;;9.20;5.55;;;;;;;13.86;34.55;99918.20;2131044;83;33762;-66
2022/04/04 09:42:20;;;;;;;6.08;5.28;;;;;;;13.92;34.96;99916.41;2116127;83;29825;-66
2022/04/04 09:45:25;;;;;;;9.40;4.62;;;;;;;14.01;34.66;99907.70;2106019;84;27705;-67
2022/04/04 09:48:27;;;;;;;9.23;4.78;;;;;;;13.71;34.26;99867.62;2106040;83;29306;-66
2022/04/04 09:51:39;;;;;;;6.65;4.28;;;;;;;13.71;34.26;99867.62;2105796;84;31750;-66
2022/04/04 09:54:44;;;;;;;6.22;3.47;;;;;;;13.78;34.54;99895.35;2126699;83;32974;-66
2022/04/04 09:57:53;;;;;;;5.60;4.30;;;;;;;13.67;34.20;99886.67;2119530;83;29688;-66
2022/04/04 10:00:58;;;;;;;6.45;3.92;;;;;;;13.66;34.15;99880.06;2116640;83;27726;-66
2022/04/04 10:04:02;;;;;;;8.48;4.45;;;;;;;13.68;33.92;99876.28;2140789;83;28735;-66
2022/04/04 10:07:07;;;;;;;6.08;4.50;;;;;;;13.62;33.99;99867.31;2117492;83;31035;-66
2022/04/04 10:10:09;;;;;;;7.78;3.77;;;;;;;13.68;33.86;99857.94;2116878;83;33592;-64
2022/04/04 10:13:14;;;;;;;3.85;3.30;;;;;;;13.77;33.91;99847.02;2106297;84;29676;-65
2022/04/04 10:16:16;;;;;;;;;;;;;;;13.85;33.76;99840.58;2111995;83;28167;-65
2022/04/04 10:19:20;;;;;;;4.78;3.92;;;;;;;13.91;33.57;99839.28;2143568;83;28800;-65
2022/04/04 10:22:24;;;;;;;4.85;3.45;;;;;;;13.97;33.59;99842.43;2143204;83;31066;-65
2022/04/04 10:25:29;;;;;;;5.20;3.52;;;;;;;14.04;33.37;99825.34;2143393;83;33033;-66
2022/04/04 10:28:34;;;;;;;7.25;3.90;;;;;;;14.06;33.45;99820.70;2138229;83;29024;-67
2022/04/04 10:31:52;;;;;;;8.23;3.55;;;;;;;14.05;33.22;99814.95;2107883;83;27665;-66
2022/04/04 10:34:58;;;;;;;4.42;3.45;;;;;;;14.03;33.38;99818.23;2106467;84;30815;-66
2022/04/04 10:38:04;;;;;;;6.58;3.80;;;;;;;14.09;33.48;99802.11;2107806;84;31030;-65
2022/04/04 10:41:09;;;;;;;5.62;3.70;;;;;;;14.16;32.50;99794.44;2107761;84;32989;-66
2022/04/04 10:44:11;;;;;;;6.12;3.70;;;;;;;13.96;32.75;99785.97;2142076;83;29420;-64
2022/04/04 10:47:25;;;;;;;4.55;3.87;;;;;;;13.84;33.02;99779.63;2107182;84;28372;-66
2022/04/04 10:50:33;;;;;;;6.35;4.20;;;;;;;13.85;33.19;99781.84;2132682;83;28651;-65
2022/04/04 10:53:43;;;;;;;6.20;4.03;;;;;;;13.91;33.10;99782.27;2125236;82;31022;-67
2022/04/04 10:56:46;;;;;;;7.22;3.42;;;;;;;13.88;33.09;99774.91;2107053;84;33154;-65
2022/04/04 10:59:50;;;;;;;7.53;3.85;;;;;;;13.91;33.10;99770.62;2107525;84;29164;-66
2022/04/04 11:02:52;;;;;;;6.17;4.20;;;;;;;13.86;33.10;99764.73;2083705;84;27788;-66
2022/04/04 11:09:22;;;;;;;6.90;4.10;;;;;;;13.65;33.19;99758.06;2128124;83;30981;-65
2022/04/04 11:12:28;;;;;;;5.62;4.15;;;;;;;13.72;33.05;99733.40;2128745;83;33020;-64
2022/04/04 11:15:56;;;;;;;;;;;;;;;13.70;32.88;99746.11;2109850;84;29884;-65
2022/04/04 11:19:04;;;;;;;5.25;3.92;;;;;;;13.64;32.56;99727.22;2106369;84;27636;-63
2022/04/04 11:22:03;;;;;;;8.68;4.35;;;;;;;13.48;32.32;99728.83;2076908;83;28883;-65
2022/04/04 11:25:09;;;;;;;7.37;4.05;;;;;;;13.30;32.53;99730.47;2140500;83;31052;-66
2022/04/04 11:28:11;;;;;;;5.03;4.40;;;;;;;13.20;32.98;99714.58;2141870;83;32908;-65
2022/04/04 11:31:15;;;;;;;6.87;4.08;;;;;;;13.26;32.65;99711.47;2107270;84;29048;-65
2022/04/04 11:34:17;;;;;;;4.75;3.98;;;;;;;13.15;32.33;99708.69;2134603;83;27704;-66
2022/04/04 11:37:19;;;;;;;7.25;3.87;;;;;;;13.13;32.95;99690.45;2120377;83;28671;-66
2022/04/04 11:40:26;;;;;;;5.10;4.30;;;;;;;13.11;32.59;99695.06;2107707;84;31024;-65
2022/04/04 11:43:30;;;;;;;6.65;4.15;;;;;;;13.01;32.50;99690.81;2107363;84;33680;-66
2022/04/04 11:46:32;;;;;;;5.67;4.22;;;;;;;12.91;32.63;99688.75;2085895;83;31179;-65
2022/04/04 11:49:37;;;;;;;6.25;4.42;;;;;;;12.85;32.32;99692.34;2125194;82;27676;-65
2022/04/04 11:52:52;;;;;;;4.45;4.03;;;;;;;12.78;32.72;99670.91;2107299;84;29614;-65
2022/04/04 11:56:03;;;;;;;4.22;3.85;;;;;;;12.90;32.76;99676.30;2107769;84;31007;-64
2022/04/04 11:59:06;;;;;;;4.92;3.67;;;;;;;12.92;32.45;99665.43;2114066;83;33037;-65
2022/04/04 12:02:11;;;;;;;4.90;3.37;;;;;;;13.06;32.62;99664.47;2106312;83;31076;-66
2022/04/04 12:05:14;;;;;;;5.67;4.60;;;;;;;13.19;31.98;99650.53;2144124;82;27760;-65
2022/04/04 12:08:27;;;;;;;7.25;4.08;;;;;;;13.21;32.26;99636.95;2143785;83;28758;-65
2022/04/04 12:11:31;;;;;;;5.40;3.58;;;;;;;13.23;31.87;99643.09;2142093;83;32703;-65
2022/04/04 12:14:39;;;;;;;5.10;3.45;;;;;;;13.20;31.66;99632.55;2143633;81;32942;-64
2022/04/04 12:17:41;;;;;;;6.65;4.35;;;;;;;13.25;31.87;99612.03;2142804;83;29096;-64
2022/04/04 12:20:46;;;;;;;12.30;4.00;;;;;;;13.24;31.86;99614.38;2116172;83;27731;-64
2022/04/04 12:27:16;;;;;;;5.85;3.72;;;;;;;13.14;31.46;99609.64;2107640;84;31094;-64
2022/04/04 12:30:31;;;;;;;6.17;4.17;;;;;;;13.07;31.55;99603.84;2134688;83;33518;-65
2022/04/04 12:33:34;;;;;;;9.78;3.87;;;;;;;12.96;31.31;99590.78;2143284;83;30135;-65
2022/04/04 12:36:41;;;;;;;4.78;4.08;;;;;;;12.75;31.41;99583.27;2143651;83;27734;-64
2022/04/04 12:39:43;;;;;;;8.23;3.87;;;;;;;12.68;31.73;99572.59;2143524;83;29847;-65
2022/04/04 12:42:47;;;;;;;9.18;4.05;;;;;;;12.66;31.34;99572.67;2110950;83;33105;-64
2022/04/04 12:45:50;;;;;;;6.63;3.70;;;;;;;12.58;31.59;99558.94;2123716;83;33062;-64
2022/04/04 12:48:52;;;;;;;7.70;3.98;;;;;;;12.55;31.59;99551.96;2143123;83;29729;-65
2022/04/04 12:52:00;;;;;;;5.05;3.60;;;;;;;12.56;32.03;99552.34;2144096;83;27704;-65
2022/04/04 12:55:13;;;;;;;5.55;3.37;;;;;;;12.57;31.65;99552.72;2109608;83;28649;-65
2022/04/04 12:58:24;;;;;;;7.85;3.85;;;;;;;12.46;31.57;99540.50;2134193;83;31029;-65
2022/04/04 13:01:27;;;;;;;7.00;3.75;;;;;;;12.36;31.34;99533.56;2127343;83;33032;-65
2022/04/04 13:04:30;;;;;;;6.20;4.08;;;;;;;12.38;31.81;99521.38;2116686;83;29090;-65
2022/04/04 13:07:33;;;;;;;6.30;4.37;;;;;;;12.45;31.33;99512.79;2123593;83;27614;-63
2022/04/04 13:10:35;;;;;;;5.58;3.67;;;;;;;12.35;31.28;99505.48;2113563;82;29299;-64
2022/04/04 13:14:06;;;;;;;5.78;3.20;;;;;;;12.33;31.23;99502.03;2079268;84;31833;-63
2022/04/04 13:17:09;;;;;;;4.78;3.42;;;;;;;12.36;31.09;99479.84;2113359;83;33037;-64
2022/04/04 13:20:13;;;;;;;4.85;3.08;;;;;;;12.40;31.34;99478.66;2142058;82;29891;-65
2022/04/04 13:23:15;;;;;;;5.58;2.95;;;;;;;12.41;31.43;99454.87;2107851;84;27676;-65
2022/04/04 13:26:17;;;;;;;4.20;3.15;;;;;;;12.51;31.46;99462.26;2107736;84;28092;-65
2022/04/04 13:29:20;;;;;;;5.97;3.50;;;;;;;12.52;31.17;99458.14;2139896;83;31915;-65
2022/04/04 13:32:22;;;;;;;6.20;3.40;;;;;;;12.49;30.76;99450.29;2143719;83;33065;-65
2022/04/04 13:35:24;;;;;;;4.45;3.35;;;;;;;12.48;31.09;99432.45;2143695;83;29805;-66
2022/04/04 13:38:27;;;;;;;5.40;2.72;;;;;;;12.49;30.87;99427.45;2114228;83;27758;-66
2022/04/04 13:41:34;;;;;;;10.05;5.10;;;;;;;12.36;30.81;99414.53;2107516;84;28594;-66
2022/04/04 13:44:36;;;;;;;5.00;2.70;;;;;;;12.38;30.98;99405.89;2134920;83;31102;-63
2022/04/04 13:47:39;;;;;;;5.72;3.50;;;;;;;12.37;30.65;99391.58;2107270;84;33735;-64
2022/04/04 13:50:42;;;;;;;4.40;2.92;;;;;;;12.26;30.49;99388.81;2107055;84;30415;-66
2022/04/04 13:53:46;;;;;;;8.53;4.30;;;;;;;12.23;30.89;99394.41;2108080;83;28327;-65
2022/04/04 13:56:49;;;;;;;8.60;4.28;;;;;;;12.22;30.79;99376.10;2114711;83;29359;-66
2022/04/04 13:59:50;;;;;;;9.90;4.85;;;;;;;12.29;30.77;99365.78;2136278;83;31825;-65
2022/04/04 14:02:52;;;;;;;6.03;3.33;;;;;;;12.30;30.37;99345.52;2135863;83;33005;-65
2022/04/04 14:05:56;;;;;;;5.28;2.83;;;;;;;12.31;30.65;99348.57;2121777;83;29637;-65
2022/04/04 14:08:58;;;;;;;16.17;5.50;;;;;;;12.34;30.39;99347.48;2107678;84;27690;-65
2022/04/04 14:12:00;;;;;;;12.03;5.92;;;;;;;12.34;30.27;99340.77;2107383;84;29763;-65
2022/04/04 14:15:07;;;;;;;12.33;4.78;;;;;;;12.27;30.15;99328.27;2145014;82;31013;-65
2022/04/04 14:18:09;;;;;;;5.15;3.17;;;;;;;12.19;29.96;99325.30;2146489;82;33058;-65
2022/04/04 14:21:14;;;;;;;9.65;3.42;;;;;;;12.11;29.44;99309.74;2146957;82;29046;-65
2022/04/04 14:24:17;;;;;;;;;;;;;;;11.97;29.43;99295.09;2161586;81;27717;-64